createdAt,value
2019-03-04T22:16:17.932Z,62.34
2019-03-04T22:18:50.057Z,62.50
2019-03-04T22:21:20.446Z,62.36
2019-03-04T22:23:51.222Z,62.53
2019-03-04T22:26:21.911Z,62.69
2019-03-04T22:28:54.959Z,62.55
2019-03-04T22:31:25.395Z,62.27
2019-03-04T22:34:03.098Z,62.33
2019-03-04T22:36:50.661Z,62.29
2019-03-04T22:39:21.819Z,61.98
2019-03-04T22:42:00.337Z,61.98
2019-03-04T22:44:36.867Z,61.69
2019-03-04T22:47:17.058Z,61.43
2019-03-04T22:49:47.602Z,61.35
2019-03-04T22:52:22.619Z,61.34
2019-03-04T22:55:15.307Z,61.38
2019-03-04T22:57:47.649Z,61.29
2019-03-04T23:01:21.629Z,61.43
2019-03-04T23:04:03.723Z,61.26
2019-03-04T23:06:38.274Z,61.38
2019-03-04T23:09:11.603Z,61.38
2019-03-04T23:11:46.994Z,61.34
2019-03-04T23:14:26.330Z,61.51
2019-03-04T23:16:56.733Z,61.63
2019-03-04T23:19:34.623Z,61.64
2019-03-04T23:22:05.287Z,61.58
2019-03-04T23:24:37.400Z,61.45
2019-03-04T23:27:08.891Z,61.50
2019-03-04T23:29:39.418Z,61.49
2019-03-04T23:32:10.043Z,61.46
2019-03-04T23:34:41.036Z,61.56
2019-03-04T23:37:12.079Z,61.51
2019-03-04T23:39:43.120Z,61.26
2019-03-04T23:42:13.606Z,61.22
2019-03-04T23:44:47.541Z,61.24
2019-03-04T23:47:18.080Z,61.05
2019-03-04T23:49:48.860Z,61.00
2019-03-04T23:52:19.228Z,60.84
2019-03-04T23:54:49.667Z,60.79
2019-03-04T23:57:20.081Z,60.91
2019-03-04T23:59:52.311Z,61.01
